Londres, Argentina
Current Conditions -  °F | °C
As of 8:00 PM on Friday 31 Oct 2014 (Local Time) from SANT Reporting Station
Scattered Clouds Scattered Clouds  
Wind Chill: 72°   Ceiling: Unl
Heat Index: 72°   Visibility: 6mi
Dew Point: 70°   Wind: 9mph
Humidity: 94%   Direction: 50°NE
Pressure: 29.8"   Gusts: NA
Location:  27.72°S, 67.12°W
Report Text: SANT 312300Z 05008KT 9000 SCT025 SCT035FEW050CB 22/21 Q1009
Loading
Personal Weather Stations






























Interactive Weather Map
Tropical Storm Tracking
New forecast layout! Learn more

10-Day Weather Forecast

Advertisements
Track Severe Weather on mobile